sensor_id;sensor_type;location;lat;lon;timestamp;P1;durP1;ratioP1;P2;durP2;ratioP2
11135;SDS011;5622;50.840;4.948;2023-08-12T00:01:56;12.17;;;7.10;;
11135;SDS011;5622;50.840;4.948;2023-08-12T00:04:23;9.47;;;6.90;;
11135;SDS011;5622;50.840;4.948;2023-08-12T00:06:50;13.03;;;7.37;;
11135;SDS011;5622;50.840;4.948;2023-08-12T00:09:17;10.27;;;6.83;;
11135;SDS011;5622;50.840;4.948;2023-08-12T00:11:44;8.90;;;7.20;;
11135;SDS011;5622;50.840;4.948;2023-08-12T00:14:11;9.90;;;6.60;;
11135;SDS011;5622;50.840;4.948;2023-08-12T00:16:39;11.07;;;8.20;;
11135;SDS011;5622;50.840;4.948;2023-08-12T00:19:07;7.70;;;6.90;;
11135;SDS011;5622;50.840;4.948;2023-08-12T00:21:35;13.73;;;6.80;;
11135;SDS011;5622;50.840;4.948;2023-08-12T00:24:02;10.63;;;6.93;;
11135;SDS011;5622;50.840;4.948;2023-08-12T00:26:29;10.57;;;7.97;;
11135;SDS011;5622;50.840;4.948;2023-08-12T00:28:56;12.70;;;7.60;;
11135;SDS011;5622;50.840;4.948;2023-08-12T00:31:23;12.73;;;7.83;;
11135;SDS011;5622;50.840;4.948;2023-08-12T00:33:50;9.23;;;7.10;;
11135;SDS011;5622;50.840;4.948;2023-08-12T00:36:19;12.60;;;6.77;;
11135;SDS011;5622;50.840;4.948;2023-08-12T00:38:46;13.73;;;6.93;;
11135;SDS011;5622;50.840;4.948;2023-08-12T00:41:13;9.87;;;5.93;;
11135;SDS011;5622;50.840;4.948;2023-08-12T00:43:40;9.50;;;5.80;;
11135;SDS011;5622;50.840;4.948;2023-08-12T00:46:07;8.73;;;5.60;;
11135;SDS011;5622;50.840;4.948;2023-08-12T00:48:34;7.43;;;6.00;;
11135;SDS011;5622;50.840;4.948;2023-08-12T00:51:01;7.70;;;6.30;;
11135;SDS011;5622;50.840;4.948;2023-08-12T00:53:30;8.43;;;5.50;;
11135;SDS011;5622;50.840;4.948;2023-08-12T00:55:57;6.30;;;5.00;;
11135;SDS011;5622;50.840;4.948;2023-08-12T00:58:25;7.53;;;5.77;;
11135;SDS011;5622;50.840;4.948;2023-08-12T01:00:52;8.97;;;6.07;;
11135;SDS011;5622;50.840;4.948;2023-08-12T01:03:19;8.80;;;6.00;;
11135;SDS011;5622;50.840;4.948;2023-08-12T01:05:46;8.13;;;5.73;;
11135;SDS011;5622;50.840;4.948;2023-08-12T01:08:13;8.20;;;6.30;;
11135;SDS011;5622;50.840;4.948;2023-08-12T01:10:43;10.37;;;6.40;;
11135;SDS011;5622;50.840;4.948;2023-08-12T01:13:17;8.30;;;6.53;;
11135;SDS011;5622;50.840;4.948;2023-08-12T01:15:52;9.10;;;6.27;;
11135;SDS011;5622;50.840;4.948;2023-08-12T01:18:22;12.23;;;6.10;;
11135;SDS011;5622;50.840;4.948;2023-08-12T01:20:51;8.10;;;6.20;;
11135;SDS011;5622;50.840;4.948;2023-08-12T01:23:20;8.60;;;5.57;;
11135;SDS011;5622;50.840;4.948;2023-08-12T01:25:48;8.80;;;6.13;;
11135;SDS011;5622;50.840;4.948;2023-08-12T01:28:15;6.87;;;6.10;;
11135;SDS011;5622;50.840;4.948;2023-08-12T01:30:50;9.93;;;6.30;;
11135;SDS011;5622;50.840;4.948;2023-08-12T01:33:30;8.90;;;6.50;;
11135;SDS011;5622;50.840;4.948;2023-08-12T01:36:07;11.10;;;7.20;;
11135;SDS011;5622;50.840;4.948;2023-08-12T01:38:38;11.20;;;7.43;;
11135;SDS011;5622;50.840;4.948;2023-08-12T01:41:07;8.27;;;6.37;;
11135;SDS011;5622;50.840;4.948;2023-08-12T01:43:36;8.97;;;6.73;;
11135;SDS011;5622;50.840;4.948;2023-08-12T01:46:03;11.93;;;6.70;;
11135;SDS011;5622;50.840;4.948;2023-08-12T01:48:31;8.77;;;7.37;;
11135;SDS011;5622;50.840;4.948;2023-08-12T01:50:58;12.60;;;7.10;;
11135;SDS011;5622;50.840;4.948;2023-08-12T01:53:25;14.53;;;8.73;;
11135;SDS011;5622;50.840;4.948;2023-08-12T01:55:53;10.23;;;7.60;;
11135;SDS011;5622;50.840;4.948;2023-08-12T01:58:20;10.87;;;8.27;;
11135;SDS011;5622;50.840;4.948;2023-08-12T02:00:47;11.27;;;8.27;;
11135;SDS011;5622;50.840;4.948;2023-08-12T02:03:14;10.23;;;8.30;;
11135;SDS011;5622;50.840;4.948;2023-08-12T02:05:42;10.53;;;8.77;;
11135;SDS011;5622;50.840;4.948;2023-08-12T02:08:09;13.60;;;10.00;;
11135;SDS011;5622;50.840;4.948;2023-08-12T02:10:36;12.27;;;8.63;;
11135;SDS011;5622;50.840;4.948;2023-08-12T02:13:04;13.57;;;9.73;;
11135;SDS011;5622;50.840;4.948;2023-08-12T02:15:31;10.87;;;8.07;;
11135;SDS011;5622;50.840;4.948;2023-08-12T02:17:58;12.33;;;8.87;;
11135;SDS011;5622;50.840;4.948;2023-08-12T02:20:26;12.60;;;9.40;;
11135;SDS011;5622;50.840;4.948;2023-08-12T02:22:53;12.17;;;9.30;;
11135;SDS011;5622;50.840;4.948;2023-08-12T02:25:20;12.17;;;9.10;;
11135;SDS011;5622;50.840;4.948;2023-08-12T02:27:47;12.63;;;9.13;;
11135;SDS011;5622;50.840;4.948;2023-08-12T02:30:15;13.40;;;9.30;;
11135;SDS011;5622;50.840;4.948;2023-08-12T02:32:42;12.50;;;9.03;;
11135;SDS011;5622;50.840;4.948;2023-08-12T02:35:09;10.73;;;9.60;;
11135;SDS011;5622;50.840;4.948;2023-08-12T02:37:37;13.30;;;9.77;;
11135;SDS011;5622;50.840;4.948;2023-08-12T02:40:04;11.63;;;9.00;;
11135;SDS011;5622;50.840;4.948;2023-08-12T02:42:32;19.77;;;9.83;;
11135;SDS011;5622;50.840;4.948;2023-08-12T02:44:59;11.47;;;10.07;;
11135;SDS011;5622;50.840;4.948;2023-08-12T02:47:28;13.40;;;10.27;;
11135;SDS011;5622;50.840;4.948;2023-08-12T02:49:55;11.87;;;9.63;;
11135;SDS011;5622;50.840;4.948;2023-08-12T02:52:22;15.30;;;9.20;;
11135;SDS011;5622;50.840;4.948;2023-08-12T02:54:49;13.70;;;10.47;;
11135;SDS011;5622;50.840;4.948;2023-08-12T02:57:16;12.23;;;9.70;;
11135;SDS011;5622;50.840;4.948;2023-08-12T02:59:44;14.10;;;9.80;;
11135;SDS011;5622;50.840;4.948;2023-08-12T03:02:11;15.77;;;10.07;;
11135;SDS011;5622;50.840;4.948;2023-08-12T03:04:39;13.63;;;9.93;;
11135;SDS011;5622;50.840;4.948;2023-08-12T03:07:06;15.10;;;9.63;;
11135;SDS011;5622;50.840;4.948;2023-08-12T03:09:33;14.63;;;10.00;;
11135;SDS011;5622;50.840;4.948;2023-08-12T03:12:01;12.27;;;9.83;;
11135;SDS011;5622;50.840;4.948;2023-08-12T03:14:29;15.17;;;9.70;;
11135;SDS011;5622;50.840;4.948;2023-08-12T03:16:56;15.13;;;9.93;;
11135;SDS011;5622;50.840;4.948;2023-08-12T03:19:23;13.13;;;10.00;;
11135;SDS011;5622;50.840;4.948;2023-08-12T03:21:51;12.13;;;9.50;;
11135;SDS011;5622;50.840;4.948;2023-08-12T03:24:18;15.30;;;10.10;;
11135;SDS011;5622;50.840;4.948;2023-08-12T03:26:45;13.97;;;9.77;;
11135;SDS011;5622;50.840;4.948;2023-08-12T03:29:13;12.73;;;10.07;;
11135;SDS011;5622;50.840;4.948;2023-08-12T03:31:40;12.47;;;9.60;;
11135;SDS011;5622;50.840;4.948;2023-08-12T03:34:07;17.23;;;9.23;;
11135;SDS011;5622;50.840;4.948;2023-08-12T03:36:34;13.03;;;9.97;;
11135;SDS011;5622;50.840;4.948;2023-08-12T03:39:03;14.13;;;8.87;;
11135;SDS011;5622;50.840;4.948;2023-08-12T03:41:31;14.37;;;9.00;;
11135;SDS011;5622;50.840;4.948;2023-08-12T03:43:58;12.87;;;8.93;;
11135;SDS011;5622;50.840;4.948;2023-08-12T03:46:25;16.63;;;9.83;;
11135;SDS011;5622;50.840;4.948;2023-08-12T03:48:52;11.67;;;9.07;;
11135;SDS011;5622;50.840;4.948;2023-08-12T03:51:19;14.30;;;9.40;;
11135;SDS011;5622;50.840;4.948;2023-08-12T03:53:47;17.70;;;10.47;;
11135;SDS011;5622;50.840;4.948;2023-08-12T03:56:15;13.40;;;9.10;;
11135;SDS011;5622;50.840;4.948;2023-08-12T03:58:42;12.83;;;9.43;;
11135;SDS011;5622;50.840;4.948;2023-08-12T04:01:10;14.63;;;8.83;;
11135;SDS011;5622;50.840;4.948;2023-08-12T04:03:37;10.93;;;8.40;;
11135;SDS011;5622;50.840;4.948;2023-08-12T04:06:04;12.13;;;8.83;;
11135;SDS011;5622;50.840;4.948;2023-08-12T04:08:31;14.20;;;9.40;;
11135;SDS011;5622;50.840;4.948;2023-08-12T04:10:59;13.60;;;8.70;;
11135;SDS011;5622;50.840;4.948;2023-08-12T04:13:28;13.53;;;8.87;;
11135;SDS011;5622;50.840;4.948;2023-08-12T04:15:55;11.27;;;8.97;;
11135;SDS011;5622;50.840;4.948;2023-08-12T04:18:22;12.70;;;9.33;;
11135;SDS011;5622;50.840;4.948;2023-08-12T04:20:49;11.80;;;9.57;;
11135;SDS011;5622;50.840;4.948;2023-08-12T04:23:17;14.13;;;9.33;;
11135;SDS011;5622;50.840;4.948;2023-08-12T04:25:45;9.73;;;8.33;;
11135;SDS011;5622;50.840;4.948;2023-08-12T04:28:13;12.20;;;9.10;;
11135;SDS011;5622;50.840;4.948;2023-08-12T04:30:43;12.30;;;8.77;;
11135;SDS011;5622;50.840;4.948;2023-08-12T04:33:10;14.47;;;9.93;;
11135;SDS011;5622;50.840;4.948;2023-08-12T04:35:38;12.40;;;9.30;;
11135;SDS011;5622;50.840;4.948;2023-08-12T04:38:05;14.67;;;10.00;;
11135;SDS011;5622;50.840;4.948;2023-08-12T04:40:33;13.90;;;10.07;;
11135;SDS011;5622;50.840;4.948;2023-08-12T04:43:00;14.83;;;9.50;;
11135;SDS011;5622;50.840;4.948;2023-08-12T04:45:28;10.87;;;8.70;;
11135;SDS011;5622;50.840;4.948;2023-08-12T04:47:56;15.60;;;9.33;;
11135;SDS011;5622;50.840;4.948;2023-08-12T04:50:24;13.97;;;9.40;;
11135;SDS011;5622;50.840;4.948;2023-08-12T04:52:51;11.20;;;9.10;;
11135;SDS011;5622;50.840;4.948;2023-08-12T04:55:19;12.97;;;9.47;;
11135;SDS011;5622;50.840;4.948;2023-08-12T04:57:46;11.10;;;8.97;;
11135;SDS011;5622;50.840;4.948;2023-08-12T05:00:13;12.50;;;9.33;;
11135;SDS011;5622;50.840;4.948;2023-08-12T05:02:40;9.53;;;8.53;;
11135;SDS011;5622;50.840;4.948;2023-08-12T05:05:09;14.03;;;9.70;;
11135;SDS011;5622;50.840;4.948;2023-08-12T05:07:36;17.03;;;10.97;;
11135;SDS011;5622;50.840;4.948;2023-08-12T05:10:03;9.80;;;8.67;;
11135;SDS011;5622;50.840;4.948;2023-08-12T05:12:31;13.30;;;9.90;;
11135;SDS011;5622;50.840;4.948;2023-08-12T05:14:58;10.53;;;8.57;;
11135;SDS011;5622;50.840;4.948;2023-08-12T05:17:25;16.00;;;9.30;;
11135;SDS011;5622;50.840;4.948;2023-08-12T05:19:53;15.90;;;8.60;;
11135;SDS011;5622;50.840;4.948;2023-08-12T05:22:21;12.30;;;8.33;;
11135;SDS011;5622;50.840;4.948;2023-08-12T05:24:48;12.00;;;8.87;;
11135;SDS011;5622;50.840;4.948;2023-08-12T05:27:15;14.73;;;8.10;;
11135;SDS011;5622;50.840;4.948;2023-08-12T05:29:42;11.30;;;8.10;;
11135;SDS011;5622;50.840;4.948;2023-08-12T05:32:09;11.70;;;8.20;;
11135;SDS011;5622;50.840;4.948;2023-08-12T05:34:37;10.67;;;7.63;;
11135;SDS011;5622;50.840;4.948;2023-08-12T05:37:04;10.53;;;7.20;;
11135;SDS011;5622;50.840;4.948;2023-08-12T05:39:32;14.10;;;7.27;;
11135;SDS011;5622;50.840;4.948;2023-08-12T05:41:59;10.60;;;6.70;;
11135;SDS011;5622;50.840;4.948;2023-08-12T05:44:26;8.53;;;6.37;;
11135;SDS011;5622;50.840;4.948;2023-08-12T05:46:53;8.63;;;5.47;;
11135;SDS011;5622;50.840;4.948;2023-08-12T05:49:20;6.67;;;5.80;;
11135;SDS011;5622;50.840;4.948;2023-08-12T05:51:47;8.43;;;5.63;;
11135;SDS011;5622;50.840;4.948;2023-08-12T05:54:15;11.47;;;5.10;;
11135;SDS011;5622;50.840;4.948;2023-08-12T06:00:06;7.93;;;4.93;;
11135;SDS011;5622;50.840;4.948;2023-08-12T06:02:34;6.90;;;4.77;;
11135;SDS011;5622;50.840;4.948;2023-08-12T06:05:01;7.73;;;5.07;;
11135;SDS011;5622;50.840;4.948;2023-08-12T06:07:29;5.53;;;4.27;;
11135;SDS011;5622;50.840;4.948;2023-08-12T06:09:56;5.03;;;4.27;;
11135;SDS011;5622;50.840;4.948;2023-08-12T06:12:23;4.40;;;3.90;;
11135;SDS011;5622;50.840;4.948;2023-08-12T06:14:50;4.37;;;3.53;;
11135;SDS011;5622;50.840;4.948;2023-08-12T06:17:18;6.73;;;4.17;;
11135;SDS011;5622;50.840;4.948;2023-08-12T06:19:46;6.17;;;3.80;;
11135;SDS011;5622;50.840;4.948;2023-08-12T06:22:13;4.63;;;4.17;;
11135;SDS011;5622;50.840;4.948;2023-08-12T06:24:40;4.23;;;3.77;;
11135;SDS011;5622;50.840;4.948;2023-08-12T06:27:07;3.77;;;3.43;;
11135;SDS011;5622;50.840;4.948;2023-08-12T06:29:34;5.23;;;3.70;;
11135;SDS011;5622;50.840;4.948;2023-08-12T06:32:01;5.30;;;3.20;;
11135;SDS011;5622;50.840;4.948;2023-08-12T06:34:30;6.33;;;3.77;;
11135;SDS011;5622;50.840;4.948;2023-08-12T06:36:57;5.50;;;3.00;;
11135;SDS011;5622;50.840;4.948;2023-08-12T06:39:24;5.57;;;3.40;;
11135;SDS011;5622;50.840;4.948;2023-08-12T06:41:51;4.50;;;2.83;;
11135;SDS011;5622;50.840;4.948;2023-08-12T06:44:18;3.63;;;3.23;;
11135;SDS011;5622;50.840;4.948;2023-08-12T06:46:45;3.40;;;2.83;;
11135;SDS011;5622;50.840;4.948;2023-08-12T06:49:12;5.17;;;2.87;;
11135;SDS011;5622;50.840;4.948;2023-08-12T06:51:40;2.90;;;2.60;;
11135;SDS011;5622;50.840;4.948;2023-08-12T06:54:07;3.00;;;2.70;;
11135;SDS011;5622;50.840;4.948;2023-08-12T06:56:35;4.23;;;2.77;;
11135;SDS011;5622;50.840;4.948;2023-08-12T06:59:02;6.40;;;2.97;;
11135;SDS011;5622;50.840;4.948;2023-08-12T07:01:29;3.00;;;2.33;;
11135;SDS011;5622;50.840;4.948;2023-08-12T07:03:56;5.37;;;2.50;;
11135;SDS011;5622;50.840;4.948;2023-08-12T07:06:23;5.60;;;2.27;;
11135;SDS011;5622;50.840;4.948;2023-08-12T07:08:52;3.80;;;2.17;;
11135;SDS011;5622;50.840;4.948;2023-08-12T07:11:19;2.93;;;2.50;;
11135;SDS011;5622;50.840;4.948;2023-08-12T07:13:46;2.57;;;2.00;;
11135;SDS011;5622;50.840;4.948;2023-08-12T07:16:13;3.43;;;1.93;;
11135;SDS011;5622;50.840;4.948;2023-08-12T07:18:40;2.60;;;1.93;;
11135;SDS011;5622;50.840;4.948;2023-08-12T07:21:07;2.33;;;2.10;;
11135;SDS011;5622;50.840;4.948;2023-08-12T07:23:34;2.33;;;1.83;;
11135;SDS011;5622;50.840;4.948;2023-08-12T07:26:03;1.93;;;1.73;;
11135;SDS011;5622;50.840;4.948;2023-08-12T07:28:30;2.20;;;1.60;;
11135;SDS011;5622;50.840;4.948;2023-08-12T07:31:00;3.33;;;1.87;;
11135;SDS011;5622;50.840;4.948;2023-08-12T07:33:27;7.83;;;1.90;;
11135;SDS011;5622;50.840;4.948;2023-08-12T07:35:54;2.00;;;1.87;;
11135;SDS011;5622;50.840;4.948;2023-08-12T07:38:21;1.67;;;1.57;;
11135;SDS011;5622;50.840;4.948;2023-08-12T07:40:48;3.57;;;1.43;;
11135;SDS011;5622;50.840;4.948;2023-08-12T07:43:17;1.57;;;1.47;;
11135;SDS011;5622;50.840;4.948;2023-08-12T07:45:44;2.00;;;1.23;;
11135;SDS011;5622;50.840;4.948;2023-08-12T07:48:11;1.83;;;1.30;;
11135;SDS011;5622;50.840;4.948;2023-08-12T07:50:38;2.47;;;1.20;;
11135;SDS011;5622;50.840;4.948;2023-08-12T07:53:05;3.47;;;1.30;;
11135;SDS011;5622;50.840;4.948;2023-08-12T07:55:34;1.10;;;1.10;;
11135;SDS011;5622;50.840;4.948;2023-08-12T07:58:01;1.73;;;1.13;;
11135;SDS011;5622;50.840;4.948;2023-08-12T08:00:31;1.23;;;1.17;;
11135;SDS011;5622;50.840;4.948;2023-08-12T08:03:06;1.20;;;1.10;;
11135;SDS011;5622;50.840;4.948;2023-08-12T08:05:34;2.00;;;1.10;;
11135;SDS011;5622;50.840;4.948;2023-08-12T08:08:01;2.93;;;1.20;;
11135;SDS011;5622;50.840;4.948;2023-08-12T08:10:31;1.00;;;1.00;;
11135;SDS011;5622;50.840;4.948;2023-08-12T08:12:59;3.60;;;1.10;;
11135;SDS011;5622;50.840;4.948;2023-08-12T08:15:36;3.90;;;1.17;;
11135;SDS011;5622;50.840;4.948;2023-08-12T08:18:05;1.73;;;1.30;;
11135;SDS011;5622;50.840;4.948;2023-08-12T08:20:36;7.57;;;1.40;;
11135;SDS011;5622;50.840;4.948;2023-08-12T08:23:07;1.63;;;1.53;;
11135;SDS011;5622;50.840;4.948;2023-08-12T08:25:34;1.50;;;1.40;;
11135;SDS011;5622;50.840;4.948;2023-08-12T08:28:02;1.93;;;1.70;;
11135;SDS011;5622;50.840;4.948;2023-08-12T08:30:30;2.90;;;1.27;;
11135;SDS011;5622;50.840;4.948;2023-08-12T08:32:58;2.37;;;1.50;;
11135;SDS011;5622;50.840;4.948;2023-08-12T08:35:26;1.40;;;1.30;;
11135;SDS011;5622;50.840;4.948;2023-08-12T08:37:53;1.87;;;1.43;;
11135;SDS011;5622;50.840;4.948;2023-08-12T08:40:20;2.40;;;1.50;;
11135;SDS011;5622;50.840;4.948;2023-08-12T08:42:49;2.17;;;1.50;;
11135;SDS011;5622;50.840;4.948;2023-08-12T08:45:18;1.20;;;1.20;;
11135;SDS011;5622;50.840;4.948;2023-08-12T08:47:47;2.17;;;1.83;;
11135;SDS011;5622;50.840;4.948;2023-08-12T08:50:17;2.80;;;2.40;;
11135;SDS011;5622;50.840;4.948;2023-08-12T08:52:45;3.60;;;3.17;;
11135;SDS011;5622;50.840;4.948;2023-08-12T08:55:13;4.33;;;3.80;;
11135;SDS011;5622;50.840;4.948;2023-08-12T08:57:41;4.10;;;3.70;;
11135;SDS011;5622;50.840;4.948;2023-08-12T09:00:12;4.73;;;4.33;;
11135;SDS011;5622;50.840;4.948;2023-08-12T09:02:43;4.93;;;4.43;;
11135;SDS011;5622;50.840;4.948;2023-08-12T09:05:11;4.60;;;4.20;;
11135;SDS011;5622;50.840;4.948;2023-08-12T09:07:42;4.63;;;4.23;;
11135;SDS011;5622;50.840;4.948;2023-08-12T09:10:10;5.73;;;4.67;;
11135;SDS011;5622;50.840;4.948;2023-08-12T09:12:38;5.50;;;4.77;;
11135;SDS011;5622;50.840;4.948;2023-08-12T09:15:06;5.17;;;4.00;;
11135;SDS011;5622;50.840;4.948;2023-08-12T09:17:34;4.70;;;4.20;;
11135;SDS011;5622;50.840;4.948;2023-08-12T09:20:07;4.70;;;4.30;;
11135;SDS011;5622;50.840;4.948;2023-08-12T09:22:41;5.07;;;4.17;;
11135;SDS011;5622;50.840;4.948;2023-08-12T09:25:14;4.47;;;3.80;;
11135;SDS011;5622;50.840;4.948;2023-08-12T09:27:41;4.70;;;3.33;;
11135;SDS011;5622;50.840;4.948;2023-08-12T09:30:09;4.43;;;3.53;;
11135;SDS011;5622;50.840;4.948;2023-08-12T09:32:38;4.90;;;3.70;;
11135;SDS011;5622;50.840;4.948;2023-08-12T09:35:15;5.60;;;3.87;;
11135;SDS011;5622;50.840;4.948;2023-08-12T09:37:46;4.50;;;4.10;;
11135;SDS011;5622;50.840;4.948;2023-08-12T09:40:13;7.53;;;4.67;;
11135;SDS011;5622;50.840;4.948;2023-08-12T09:42:44;4.80;;;4.40;;
11135;SDS011;5622;50.840;4.948;2023-08-12T09:45:15;6.27;;;4.50;;
11135;SDS011;5622;50.840;4.948;2023-08-12T09:47:49;6.27;;;4.93;;
11135;SDS011;5622;50.840;4.948;2023-08-12T09:50:20;6.00;;;4.77;;
11135;SDS011;5622;50.840;4.948;2023-08-12T09:52:50;5.40;;;3.80;;
11135;SDS011;5622;50.840;4.948;2023-08-12T09:55:19;4.17;;;3.77;;
11135;SDS011;5622;50.840;4.948;2023-08-12T09:57:52;3.27;;;2.97;;
11135;SDS011;5622;50.840;4.948;2023-08-12T10:00:25;3.33;;;2.20;;
11135;SDS011;5622;50.840;4.948;2023-08-12T10:02:58;4.27;;;2.80;;
11135;SDS011;5622;50.840;4.948;2023-08-12T10:05:30;2.83;;;2.33;;
11135;SDS011;5622;50.840;4.948;2023-08-12T10:08:06;2.93;;;2.70;;
11135;SDS011;5622;50.840;4.948;2023-08-12T10:10:38;2.70;;;2.30;;
11135;SDS011;5622;50.840;4.948;2023-08-12T10:13:07;3.73;;;2.53;;
11135;SDS011;5622;50.840;4.948;2023-08-12T10:15:38;6.63;;;3.27;;
11135;SDS011;5622;50.840;4.948;2023-08-12T10:18:08;2.37;;;2.10;;
11135;SDS011;5622;50.840;4.948;2023-08-12T10:20:36;4.27;;;1.90;;
11135;SDS011;5622;50.840;4.948;2023-08-12T10:23:06;3.67;;;2.10;;
11135;SDS011;5622;50.840;4.948;2023-08-12T10:25:35;3.93;;;2.13;;
11135;SDS011;5622;50.840;4.948;2023-08-12T10:28:06;2.80;;;2.10;;
11135;SDS011;5622;50.840;4.948;2023-08-12T10:30:33;4.60;;;2.20;;
11135;SDS011;5622;50.840;4.948;2023-08-12T10:33:01;3.73;;;2.00;;
11135;SDS011;5622;50.840;4.948;2023-08-12T10:35:41;2.40;;;2.10;;
11135;SDS011;5622;50.840;4.948;2023-08-12T10:38:12;1.77;;;1.67;;
11135;SDS011;5622;50.840;4.948;2023-08-12T10:40:43;3.60;;;2.67;;
11135;SDS011;5622;50.840;4.948;2023-08-12T10:43:11;2.37;;;1.80;;
11135;SDS011;5622;50.840;4.948;2023-08-12T10:45:42;1.73;;;1.60;;
11135;SDS011;5622;50.840;4.948;2023-08-12T10:48:17;3.70;;;2.00;;
11135;SDS011;5622;50.840;4.948;2023-08-12T10:50:46;4.13;;;2.20;;
11135;SDS011;5622;50.840;4.948;2023-08-12T10:53:24;3.43;;;1.97;;
11135;SDS011;5622;50.840;4.948;2023-08-12T10:55:55;6.13;;;2.47;;
11135;SDS011;5622;50.840;4.948;2023-08-12T10:58:24;4.30;;;2.27;;
11135;SDS011;5622;50.840;4.948;2023-08-12T11:00:53;2.30;;;2.10;;
11135;SDS011;5622;50.840;4.948;2023-08-12T11:03:20;2.60;;;2.30;;
11135;SDS011;5622;50.840;4.948;2023-08-12T11:05:47;3.53;;;2.40;;
11135;SDS011;5622;50.840;4.948;2023-08-12T11:08:15;6.23;;;2.43;;
11135;SDS011;5622;50.840;4.948;2023-08-12T11:10:44;4.93;;;2.03;;
11135;SDS011;5622;50.840;4.948;2023-08-12T11:13:11;4.40;;;2.10;;
11135;SDS011;5622;50.840;4.948;2023-08-12T11:15:41;4.07;;;2.13;;
11135;SDS011;5622;50.840;4.948;2023-08-12T11:18:13;2.80;;;1.80;;
11135;SDS011;5622;50.840;4.948;2023-08-12T11:20:42;2.93;;;1.73;;
11135;SDS011;5622;50.840;4.948;2023-08-12T11:23:09;3.40;;;1.50;;
11135;SDS011;5622;50.840;4.948;2023-08-12T11:25:37;4.13;;;1.77;;
11135;SDS011;5622;50.840;4.948;2023-08-12T11:28:07;3.97;;;1.87;;
11135;SDS011;5622;50.840;4.948;2023-08-12T11:30:34;4.57;;;1.70;;
11135;SDS011;5622;50.840;4.948;2023-08-12T11:33:02;4.73;;;1.70;;
11135;SDS011;5622;50.840;4.948;2023-08-12T11:35:29;5.47;;;1.97;;
11135;SDS011;5622;50.840;4.948;2023-08-12T11:37:57;6.47;;;1.90;;
11135;SDS011;5622;50.840;4.948;2023-08-12T11:40:25;4.00;;;1.60;;
11135;SDS011;5622;50.840;4.948;2023-08-12T11:42:53;6.23;;;2.13;;
11135;SDS011;5622;50.840;4.948;2023-08-12T11:45:23;6.47;;;2.00;;
11135;SDS011;5622;50.840;4.948;2023-08-12T11:47:51;3.13;;;1.70;;
11135;SDS011;5622;50.840;4.948;2023-08-12T11:50:19;6.03;;;2.10;;
11135;SDS011;5622;50.840;4.948;2023-08-12T11:52:47;3.37;;;1.93;;
11135;SDS011;5622;50.840;4.948;2023-08-12T11:55:14;7.40;;;2.00;;
11135;SDS011;5622;50.840;4.948;2023-08-12T11:57:43;4.43;;;1.93;;
11135;SDS011;5622;50.840;4.948;2023-08-12T12:00:11;2.77;;;1.60;;
11135;SDS011;5622;50.840;4.948;2023-08-12T12:02:44;4.50;;;2.13;;
11135;SDS011;5622;50.840;4.948;2023-08-12T12:05:14;4.80;;;1.73;;
11135;SDS011;5622;50.840;4.948;2023-08-12T12:07:43;4.70;;;1.87;;
11135;SDS011;5622;50.840;4.948;2023-08-12T12:10:12;6.37;;;2.13;;
11135;SDS011;5622;50.840;4.948;2023-08-12T12:12:40;5.50;;;1.97;;
11135;SDS011;5622;50.840;4.948;2023-08-12T12:15:08;4.90;;;1.97;;
11135;SDS011;5622;50.840;4.948;2023-08-12T12:17:38;6.73;;;2.50;;
11135;SDS011;5622;50.840;4.948;2023-08-12T12:20:08;2.80;;;1.90;;
11135;SDS011;5622;50.840;4.948;2023-08-12T12:22:37;8.97;;;2.30;;
11135;SDS011;5622;50.840;4.948;2023-08-12T12:25:08;7.50;;;2.37;;
11135;SDS011;5622;50.840;4.948;2023-08-12T12:27:36;4.63;;;2.30;;
11135;SDS011;5622;50.840;4.948;2023-08-12T12:30:05;5.50;;;2.23;;
11135;SDS011;5622;50.840;4.948;2023-08-12T12:32:34;6.30;;;2.50;;
11135;SDS011;5622;50.840;4.948;2023-08-12T12:35:01;5.83;;;2.77;;
11135;SDS011;5622;50.840;4.948;2023-08-12T12:37:31;3.73;;;1.93;;
11135;SDS011;5622;50.840;4.948;2023-08-12T12:39:58;6.73;;;2.43;;
11135;SDS011;5622;50.840;4.948;2023-08-12T12:42:25;6.63;;;1.90;;
11135;SDS011;5622;50.840;4.948;2023-08-12T12:44:52;4.50;;;2.10;;
11135;SDS011;5622;50.840;4.948;2023-08-12T12:47:19;4.37;;;2.07;;
11135;SDS011;5622;50.840;4.948;2023-08-12T12:49:46;4.60;;;1.97;;
11135;SDS011;5622;50.840;4.948;2023-08-12T12:52:14;2.80;;;1.90;;
11135;SDS011;5622;50.840;4.948;2023-08-12T12:54:42;5.07;;;1.90;;
11135;SDS011;5622;50.840;4.948;2023-08-12T12:57:10;4.70;;;2.00;;
11135;SDS011;5622;50.840;4.948;2023-08-12T12:59:37;2.53;;;1.90;;
11135;SDS011;5622;50.840;4.948;2023-08-12T13:02:04;3.67;;;1.90;;
11135;SDS011;5622;50.840;4.948;2023-08-12T13:04:31;2.80;;;1.80;;
11135;SDS011;5622;50.840;4.948;2023-08-12T13:06:58;3.80;;;1.77;;
11135;SDS011;5622;50.840;4.948;2023-08-12T13:09:25;6.50;;;2.37;;
11135;SDS011;5622;50.840;4.948;2023-08-12T13:11:54;4.63;;;2.00;;
11135;SDS011;5622;50.840;4.948;2023-08-12T13:14:22;6.13;;;1.90;;
11135;SDS011;5622;50.840;4.948;2023-08-12T13:16:49;7.03;;;2.50;;
11135;SDS011;5622;50.840;4.948;2023-08-12T13:19:16;3.20;;;1.87;;
11135;SDS011;5622;50.840;4.948;2023-08-12T13:21:43;3.83;;;2.30;;
11135;SDS011;5622;50.840;4.948;2023-08-12T13:24:10;4.73;;;2.10;;
11135;SDS011;5622;50.840;4.948;2023-08-12T13:26:37;3.77;;;2.10;;
11135;SDS011;5622;50.840;4.948;2023-08-12T13:29:06;6.10;;;2.20;;
11135;SDS011;5622;50.840;4.948;2023-08-12T13:31:33;5.83;;;2.33;;
11135;SDS011;5622;50.840;4.948;2023-08-12T13:34:00;6.00;;;2.43;;
11135;SDS011;5622;50.840;4.948;2023-08-12T13:36:28;4.80;;;3.00;;
11135;SDS011;5622;50.840;4.948;2023-08-12T13:38:55;2.50;;;2.30;;
11135;SDS011;5622;50.840;4.948;2023-08-12T13:41:22;5.40;;;2.73;;
11135;SDS011;5622;50.840;4.948;2023-08-12T13:43:49;4.07;;;2.30;;
11135;SDS011;5622;50.840;4.948;2023-08-12T13:46:18;8.33;;;3.40;;
11135;SDS011;5622;50.840;4.948;2023-08-12T13:48:45;2.67;;;2.23;;
11135;SDS011;5622;50.840;4.948;2023-08-12T13:51:12;6.40;;;2.60;;
11135;SDS011;5622;50.840;4.948;2023-08-12T13:53:39;2.70;;;2.23;;
11135;SDS011;5622;50.840;4.948;2023-08-12T13:56:06;6.13;;;2.13;;
11135;SDS011;5622;50.840;4.948;2023-08-12T13:58:33;3.43;;;2.40;;
11135;SDS011;5622;50.840;4.948;2023-08-12T14:01:00;6.10;;;2.10;;
11135;SDS011;5622;50.840;4.948;2023-08-12T14:03:29;4.00;;;2.13;;
11135;SDS011;5622;50.840;4.948;2023-08-12T14:05:56;5.50;;;1.90;;
11135;SDS011;5622;50.840;4.948;2023-08-12T14:08:24;13.10;;;3.23;;
11135;SDS011;5622;50.840;4.948;2023-08-12T14:10:51;4.83;;;2.00;;
11135;SDS011;5622;50.840;4.948;2023-08-12T14:13:18;5.93;;;2.03;;
11135;SDS011;5622;50.840;4.948;2023-08-12T14:15:45;3.90;;;2.27;;
11135;SDS011;5622;50.840;4.948;2023-08-12T14:18:12;4.33;;;2.00;;
11135;SDS011;5622;50.840;4.948;2023-08-12T14:20:41;4.97;;;2.20;;
11135;SDS011;5622;50.840;4.948;2023-08-12T14:23:15;2.30;;;1.90;;
11135;SDS011;5622;50.840;4.948;2023-08-12T14:25:51;4.77;;;2.20;;
11135;SDS011;5622;50.840;4.948;2023-08-12T14:28:56;5.63;;;2.10;;
11135;SDS011;5622;50.840;4.948;2023-08-12T14:31:55;4.77;;;2.20;;
11135;SDS011;5622;50.840;4.948;2023-08-12T14:34:56;8.53;;;2.13;;
11135;SDS011;5622;50.840;4.948;2023-08-12T14:38:22;2.80;;;2.17;;
11135;SDS011;5622;50.840;4.948;2023-08-12T14:48:14;4.23;;;2.00;;
11135;SDS011;5622;50.840;4.948;2023-08-12T15:04:48;4.50;;;2.27;;
11135;SDS011;5622;50.840;4.948;2023-08-12T17:55:48;4.87;;;2.43;;
11135;SDS011;5622;50.840;4.948;2023-08-12T17:58:15;3.83;;;2.47;;
11135;SDS011;5622;50.840;4.948;2023-08-12T18:00:43;4.27;;;2.13;;
11135;SDS011;5622;50.840;4.948;2023-08-12T18:06:53;8.93;;;2.90;;
11135;SDS011;5622;50.840;4.948;2023-08-12T18:09:25;5.27;;;2.60;;
11135;SDS011;5622;50.840;4.948;2023-08-12T18:17:50;6.07;;;2.70;;
11135;SDS011;5622;50.840;4.948;2023-08-12T18:20:17;8.57;;;2.87;;
11135;SDS011;5622;50.840;4.948;2023-08-12T18:22:44;3.63;;;2.60;;
11135;SDS011;5622;50.840;4.948;2023-08-12T18:25:11;3.77;;;2.50;;
11135;SDS011;5622;50.840;4.948;2023-08-12T18:27:39;4.00;;;2.53;;
11135;SDS011;5622;50.840;4.948;2023-08-12T18:30:06;6.00;;;2.80;;